Guadalupe Mtns National Park, TX

3:07 AM MDT on August 30, 2016 (GMT -0600)
APRSWXNET | | Change Station

Elev 3681 ft 31.84 °N, 104.96 °W | Updated 19 minutes ago

Overcast
Overcast
69 °F
Feels Like 69 °F
N
0
Wind Variable Wind from East
Gusts 1.0 mph

Today
High -- | Low -- °F
--% Chance of Precip.
Yesterday
High -- | Low -- °F
Precip. -- in
Pressure 30.01 in
Visibility 10.0 miles
Clouds Mostly Cloudy 2000 ft
Mostly Cloudy 2800 ft
Overcast 3800 ft
Dew Point 62 °F
Humidity 78%
Rainfall in
Snow Depth Not available.
6:35 AM 7:25 PM
Waning Crescent, 4% visible
METAR KCNM 300853Z AUTO 02007KT 10SM BKN020 BKN028 OVC038 21/18 A3017 RMK AO2 SLP163 T02110178 58008
Pressure 30.01 in
Visibility 10.0 miles
Clouds Mostly Cloudy 2000 ft
Mostly Cloudy 2800 ft
Overcast 3800 ft
Dew Point 62 °F
Humidity 78%
Rainfall in
Snow Depth Not available.
6:35 AM 7:25 PM
Waning Crescent, 4% visible
METAR KCNM 300853Z AUTO 02007KT 10SM BKN020 BKN028 OVC038 21/18 A3017 RMK AO2 SLP163 T02110178 58008

10-Day Weather Forecast

Almanac

Astronomy

Aug. 30, 2016 Rise Set
Actual Time
Civil Twilight
Nautical Twilight
Astronomical Twilight
Moon
Length of Visible Light
Length of Day
Tomorrow will be .
, % of the Moon is Illuminated

Today's Extremes

State Highs State Lows

Community

WunderPhotos

Upload Photos

1,935,795 photos uploaded!

WunderBlog® & News

Nearby

Air Quality

  Air Quality AQ Index Pollutant
Not available.

Snow Depth

Station Depth Elevation

Earthquake Activity

City Distance Mag. Time & Date
Minimum magnitude displayed is 2.5.

Coastal Water Temperatures

Place Temperature

Stations

Nearby Weather Stations

Station Location Temp. Windchill Dew Point Humidity Wind Precip. Elev Updated Type
                   

Watches & Warnings

There are currently no watches in effect.